Airport View

Enter AWOS ICAO identifier for current METAR.

ex. KFNL

KMEM 250154Z 12006KT 10SM SCT250 27/21 A2993 RMK AO2 SLP131 T02720206 $

25 May 2020 02:04

Phone: 901-332-3679

Other Area AWOS: KOLV - KAWM - KNQA - KUTA

TAF KMEM 242340Z 2500/2606 16008KT P6SM FEW040 FM250200 16004KT P6SM VCSH FEW040 FEW250 FM251100 14006KT P6SM FEW050 FEW250 FM252000 15005KT 6SM SHRA VCTS SCT090CB OVC250